sensor_id;sensor_type;location;lat;lon;timestamp;temperature;humidity
56861;DHT22;42744;51.094;3.490;2023-05-10T00:02:15;12.90;99.90
56861;DHT22;42744;51.094;3.490;2023-05-10T00:04:41;12.90;99.90
56861;DHT22;42744;51.094;3.490;2023-05-10T00:07:07;12.90;99.90
56861;DHT22;42744;51.094;3.490;2023-05-10T00:09:33;12.90;99.90
56861;DHT22;42744;51.094;3.490;2023-05-10T00:11:59;12.90;99.90
56861;DHT22;42744;51.094;3.490;2023-05-10T00:14:25;12.90;99.90
56861;DHT22;42744;51.094;3.490;2023-05-10T00:16:51;12.90;99.90
56861;DHT22;42744;51.094;3.490;2023-05-10T00:19:17;12.90;99.90
56861;DHT22;42744;51.094;3.490;2023-05-10T00:21:43;12.90;99.90
56861;DHT22;42744;51.094;3.490;2023-05-10T00:24:09;12.90;99.90
56861;DHT22;42744;51.094;3.490;2023-05-10T00:26:35;12.90;99.90
56861;DHT22;42744;51.094;3.490;2023-05-10T00:29:01;12.90;99.90
56861;DHT22;42744;51.094;3.490;2023-05-10T00:31:27;12.80;99.90
56861;DHT22;42744;51.094;3.490;2023-05-10T00:33:55;12.80;99.90
56861;DHT22;42744;51.094;3.490;2023-05-10T00:36:21;12.80;99.90
56861;DHT22;42744;51.094;3.490;2023-05-10T00:38:47;12.80;99.90
56861;DHT22;42744;51.094;3.490;2023-05-10T00:41:13;12.80;99.90
56861;DHT22;42744;51.094;3.490;2023-05-10T00:43:39;12.80;99.90
56861;DHT22;42744;51.094;3.490;2023-05-10T00:46:05;12.80;99.90
56861;DHT22;42744;51.094;3.490;2023-05-10T00:48:32;12.80;99.90
56861;DHT22;42744;51.094;3.490;2023-05-10T00:50:58;12.80;99.90
56861;DHT22;42744;51.094;3.490;2023-05-10T00:53:24;12.70;99.90
56861;DHT22;42744;51.094;3.490;2023-05-10T00:55:50;12.80;99.90
56861;DHT22;42744;51.094;3.490;2023-05-10T00:58:17;12.70;99.90
56861;DHT22;42744;51.094;3.490;2023-05-10T01:00:43;12.70;99.90
56861;DHT22;42744;51.094;3.490;2023-05-10T01:03:12;12.80;99.90
56861;DHT22;42744;51.094;3.490;2023-05-10T01:05:38;12.70;99.90
56861;DHT22;42744;51.094;3.490;2023-05-10T01:08:04;12.70;99.90
56861;DHT22;42744;51.094;3.490;2023-05-10T01:10:31;12.70;99.90
56861;DHT22;42744;51.094;3.490;2023-05-10T01:12:59;12.70;99.90
56861;DHT22;42744;51.094;3.490;2023-05-10T01:15:25;12.70;99.90
56861;DHT22;42744;51.094;3.490;2023-05-10T01:17:52;12.70;99.90
56861;DHT22;42744;51.094;3.490;2023-05-10T01:20:18;12.60;99.90
56861;DHT22;42744;51.094;3.490;2023-05-10T01:23:16;12.70;99.90
56861;DHT22;42744;51.094;3.490;2023-05-10T01:26:26;12.70;99.90
56861;DHT22;42744;51.094;3.490;2023-05-10T01:34:16;12.70;99.90
56861;DHT22;42744;51.094;3.490;2023-05-10T01:36:58;12.70;99.90
56861;DHT22;42744;51.094;3.490;2023-05-10T01:42:19;12.60;99.90
56861;DHT22;42744;51.094;3.490;2023-05-10T01:47:43;12.60;99.90
56861;DHT22;42744;51.094;3.490;2023-05-10T01:50:20;12.60;99.90
56861;DHT22;42744;51.094;3.490;2023-05-10T01:52:54;12.60;99.90
56861;DHT22;42744;51.094;3.490;2023-05-10T01:55:22;12.60;99.90
56861;DHT22;42744;51.094;3.490;2023-05-10T01:57:52;12.60;99.90
56861;DHT22;42744;51.094;3.490;2023-05-10T02:00:22;12.60;99.90
56861;DHT22;42744;51.094;3.490;2023-05-10T02:02:52;12.60;99.90
56861;DHT22;42744;51.094;3.490;2023-05-10T02:05:19;12.60;99.90
56861;DHT22;42744;51.094;3.490;2023-05-10T02:07:46;12.60;99.90
56861;DHT22;42744;51.094;3.490;2023-05-10T02:10:14;12.60;99.90
56861;DHT22;42744;51.094;3.490;2023-05-10T02:12:43;12.60;99.90
56861;DHT22;42744;51.094;3.490;2023-05-10T02:15:11;12.60;99.90
56861;DHT22;42744;51.094;3.490;2023-05-10T02:17:39;12.60;99.90
56861;DHT22;42744;51.094;3.490;2023-05-10T02:20:06;12.50;99.90
56861;DHT22;42744;51.094;3.490;2023-05-10T02:22:34;12.50;99.90
56861;DHT22;42744;51.094;3.490;2023-05-10T02:25:02;12.60;99.90
56861;DHT22;42744;51.094;3.490;2023-05-10T02:27:29;12.60;99.90
56861;DHT22;42744;51.094;3.490;2023-05-10T02:29:56;12.60;99.90
56861;DHT22;42744;51.094;3.490;2023-05-10T02:32:26;12.60;99.90
56861;DHT22;42744;51.094;3.490;2023-05-10T02:34:53;12.60;99.90
56861;DHT22;42744;51.094;3.490;2023-05-10T02:37:21;12.60;99.90
56861;DHT22;42744;51.094;3.490;2023-05-10T02:39:49;12.50;99.90
56861;DHT22;42744;51.094;3.490;2023-05-10T02:42:22;12.60;99.90
56861;DHT22;42744;51.094;3.490;2023-05-10T02:44:52;12.50;99.90
56861;DHT22;42744;51.094;3.490;2023-05-10T02:47:19;12.50;99.90
56861;DHT22;42744;51.094;3.490;2023-05-10T02:49:45;12.50;99.90
56861;DHT22;42744;51.094;3.490;2023-05-10T02:52:16;12.50;99.90
56861;DHT22;42744;51.094;3.490;2023-05-10T02:54:46;12.50;99.90
56861;DHT22;42744;51.094;3.490;2023-05-10T02:57:16;12.50;99.90
56861;DHT22;42744;51.094;3.490;2023-05-10T02:59:45;12.50;99.90
56861;DHT22;42744;51.094;3.490;2023-05-10T03:02:12;12.50;99.90
56861;DHT22;42744;51.094;3.490;2023-05-10T03:04:39;12.50;99.90
56861;DHT22;42744;51.094;3.490;2023-05-10T03:07:05;12.50;99.90
56861;DHT22;42744;51.094;3.490;2023-05-10T03:09:31;12.50;99.90
56861;DHT22;42744;51.094;3.490;2023-05-10T03:12:07;12.60;99.90
56861;DHT22;42744;51.094;3.490;2023-05-10T03:17:22;12.60;99.90
56861;DHT22;42744;51.094;3.490;2023-05-10T03:19:55;12.50;99.90
56861;DHT22;42744;51.094;3.490;2023-05-10T03:22:31;12.60;99.90
56861;DHT22;42744;51.094;3.490;2023-05-10T03:25:03;12.50;99.90
56861;DHT22;42744;51.094;3.490;2023-05-10T03:27:30;12.50;99.90
56861;DHT22;42744;51.094;3.490;2023-05-10T03:29:59;12.50;99.90
56861;DHT22;42744;51.094;3.490;2023-05-10T03:32:29;12.50;99.90
56861;DHT22;42744;51.094;3.490;2023-05-10T03:34:56;12.50;99.90
56861;DHT22;42744;51.094;3.490;2023-05-10T03:37:24;12.50;99.90
56861;DHT22;42744;51.094;3.490;2023-05-10T03:39:50;12.50;99.90
56861;DHT22;42744;51.094;3.490;2023-05-10T03:42:16;12.50;99.90
56861;DHT22;42744;51.094;3.490;2023-05-10T03:44:43;12.50;99.90
56861;DHT22;42744;51.094;3.490;2023-05-10T03:47:09;12.50;99.90
56861;DHT22;42744;51.094;3.490;2023-05-10T03:49:35;12.50;99.90
56861;DHT22;42744;51.094;3.490;2023-05-10T03:52:02;12.50;99.90
56861;DHT22;42744;51.094;3.490;2023-05-10T03:54:28;12.50;99.90
56861;DHT22;42744;51.094;3.490;2023-05-10T03:56:54;12.50;99.90
56861;DHT22;42744;51.094;3.490;2023-05-10T03:59:20;12.40;99.90
56861;DHT22;42744;51.094;3.490;2023-05-10T04:01:46;12.40;99.90
56861;DHT22;42744;51.094;3.490;2023-05-10T04:04:12;12.40;99.90
56861;DHT22;42744;51.094;3.490;2023-05-10T04:06:38;12.40;99.90
56861;DHT22;42744;51.094;3.490;2023-05-10T04:09:04;12.40;99.90
56861;DHT22;42744;51.094;3.490;2023-05-10T04:11:30;12.40;99.90
56861;DHT22;42744;51.094;3.490;2023-05-10T04:13:56;12.40;99.90
56861;DHT22;42744;51.094;3.490;2023-05-10T04:16:22;12.40;99.90
56861;DHT22;42744;51.094;3.490;2023-05-10T04:18:48;12.40;99.90
56861;DHT22;42744;51.094;3.490;2023-05-10T04:21:14;12.40;99.90
56861;DHT22;42744;51.094;3.490;2023-05-10T04:23:40;12.40;99.90
56861;DHT22;42744;51.094;3.490;2023-05-10T04:26:07;12.40;99.90
56861;DHT22;42744;51.094;3.490;2023-05-10T04:28:33;12.40;99.90
56861;DHT22;42744;51.094;3.490;2023-05-10T04:31:06;12.40;99.90
56861;DHT22;42744;51.094;3.490;2023-05-10T04:33:33;12.40;99.90
56861;DHT22;42744;51.094;3.490;2023-05-10T04:35:59;12.50;99.90
56861;DHT22;42744;51.094;3.490;2023-05-10T04:38:25;12.50;99.90
56861;DHT22;42744;51.094;3.490;2023-05-10T04:40:53;12.50;99.90
56861;DHT22;42744;51.094;3.490;2023-05-10T04:43:19;12.50;99.90
56861;DHT22;42744;51.094;3.490;2023-05-10T04:45:45;12.50;99.90
56861;DHT22;42744;51.094;3.490;2023-05-10T04:48:11;12.50;99.90
56861;DHT22;42744;51.094;3.490;2023-05-10T04:50:37;12.50;99.90
56861;DHT22;42744;51.094;3.490;2023-05-10T04:53:03;12.50;99.90
56861;DHT22;42744;51.094;3.490;2023-05-10T04:55:29;12.50;99.90
56861;DHT22;42744;51.094;3.490;2023-05-10T04:57:55;12.60;99.90
56861;DHT22;42744;51.094;3.490;2023-05-10T05:00:23;12.60;99.90
56861;DHT22;42744;51.094;3.490;2023-05-10T05:02:49;12.60;99.90
56861;DHT22;42744;51.094;3.490;2023-05-10T05:05:15;12.60;99.90
56861;DHT22;42744;51.094;3.490;2023-05-10T05:07:41;12.60;99.90
56861;DHT22;42744;51.094;3.490;2023-05-10T05:10:08;12.70;99.90
56861;DHT22;42744;51.094;3.490;2023-05-10T05:12:34;12.70;99.90
56861;DHT22;42744;51.094;3.490;2023-05-10T05:15:01;12.70;99.90
56861;DHT22;42744;51.094;3.490;2023-05-10T05:17:27;12.70;99.90
56861;DHT22;42744;51.094;3.490;2023-05-10T05:19:55;12.70;99.90
56861;DHT22;42744;51.094;3.490;2023-05-10T05:22:21;12.70;99.90
56861;DHT22;42744;51.094;3.490;2023-05-10T05:24:57;12.70;99.90
56861;DHT22;42744;51.094;3.490;2023-05-10T05:27:24;12.70;99.90
56861;DHT22;42744;51.094;3.490;2023-05-10T05:29:55;12.80;99.90
56861;DHT22;42744;51.094;3.490;2023-05-10T05:32:22;12.80;99.90
56861;DHT22;42744;51.094;3.490;2023-05-10T05:34:48;12.80;99.90
56861;DHT22;42744;51.094;3.490;2023-05-10T05:37:15;12.90;99.90
56861;DHT22;42744;51.094;3.490;2023-05-10T05:39:42;12.80;99.90
56861;DHT22;42744;51.094;3.490;2023-05-10T05:42:09;12.90;99.90
56861;DHT22;42744;51.094;3.490;2023-05-10T05:44:35;12.90;99.90
56861;DHT22;42744;51.094;3.490;2023-05-10T05:47:01;12.90;99.90
56861;DHT22;42744;51.094;3.490;2023-05-10T05:49:27;12.90;99.90
56861;DHT22;42744;51.094;3.490;2023-05-10T05:51:54;13.00;99.90
56861;DHT22;42744;51.094;3.490;2023-05-10T05:54:20;13.00;99.90
56861;DHT22;42744;51.094;3.490;2023-05-10T05:56:46;13.10;99.90
56861;DHT22;42744;51.094;3.490;2023-05-10T05:59:12;13.10;99.90
56861;DHT22;42744;51.094;3.490;2023-05-10T06:01:39;13.10;99.90
56861;DHT22;42744;51.094;3.490;2023-05-10T06:04:05;13.00;99.90
56861;DHT22;42744;51.094;3.490;2023-05-10T06:06:40;13.10;99.90
56861;DHT22;42744;51.094;3.490;2023-05-10T06:09:06;13.10;99.90
56861;DHT22;42744;51.094;3.490;2023-05-10T06:11:32;13.10;99.90
56861;DHT22;42744;51.094;3.490;2023-05-10T06:13:58;13.30;99.90
56861;DHT22;42744;51.094;3.490;2023-05-10T06:16:25;13.40;99.90
56861;DHT22;42744;51.094;3.490;2023-05-10T06:18:51;13.50;99.90
56861;DHT22;42744;51.094;3.490;2023-05-10T06:21:17;13.50;99.90
56861;DHT22;42744;51.094;3.490;2023-05-10T06:23:43;13.60;99.90
56861;DHT22;42744;51.094;3.490;2023-05-10T06:26:09;13.60;99.90
56861;DHT22;42744;51.094;3.490;2023-05-10T06:28:35;13.50;99.90
56861;DHT22;42744;51.094;3.490;2023-05-10T06:31:04;13.50;99.90
56861;DHT22;42744;51.094;3.490;2023-05-10T06:33:30;13.50;99.90
56861;DHT22;42744;51.094;3.490;2023-05-10T06:35:56;13.50;99.90
56861;DHT22;42744;51.094;3.490;2023-05-10T06:38:23;13.50;99.90
56861;DHT22;42744;51.094;3.490;2023-05-10T06:40:49;13.50;99.90
56861;DHT22;42744;51.094;3.490;2023-05-10T06:43:15;13.60;99.90
56861;DHT22;42744;51.094;3.490;2023-05-10T06:45:41;13.60;99.90
56861;DHT22;42744;51.094;3.490;2023-05-10T06:48:07;13.60;99.90
56861;DHT22;42744;51.094;3.490;2023-05-10T06:50:33;13.60;99.90
56861;DHT22;42744;51.094;3.490;2023-05-10T06:53:00;13.60;99.90
56861;DHT22;42744;51.094;3.490;2023-05-10T06:55:27;13.70;99.90
56861;DHT22;42744;51.094;3.490;2023-05-10T06:57:53;13.70;99.90
56861;DHT22;42744;51.094;3.490;2023-05-10T07:00:20;13.70;99.90
56861;DHT22;42744;51.094;3.490;2023-05-10T07:02:46;13.70;99.90
56861;DHT22;42744;51.094;3.490;2023-05-10T07:05:12;13.80;99.90
56861;DHT22;42744;51.094;3.490;2023-05-10T07:07:39;13.90;99.90
56861;DHT22;42744;51.094;3.490;2023-05-10T07:10:05;13.90;99.90
56861;DHT22;42744;51.094;3.490;2023-05-10T07:12:32;13.90;99.90
56861;DHT22;42744;51.094;3.490;2023-05-10T07:14:58;14.00;99.90
56861;DHT22;42744;51.094;3.490;2023-05-10T07:17:24;14.00;99.90
56861;DHT22;42744;51.094;3.490;2023-05-10T07:19:50;14.00;99.90
56861;DHT22;42744;51.094;3.490;2023-05-10T07:22:17;14.00;99.90
56861;DHT22;42744;51.094;3.490;2023-05-10T07:24:43;14.10;99.90
56861;DHT22;42744;51.094;3.490;2023-05-10T07:27:09;14.10;99.90
56861;DHT22;42744;51.094;3.490;2023-05-10T07:29:36;14.20;99.90
56861;DHT22;42744;51.094;3.490;2023-05-10T07:32:01;14.10;99.90
56861;DHT22;42744;51.094;3.490;2023-05-10T07:34:27;14.10;99.90
56861;DHT22;42744;51.094;3.490;2023-05-10T07:36:58;14.20;99.90
56861;DHT22;42744;51.094;3.490;2023-05-10T07:39:24;14.30;99.90
56861;DHT22;42744;51.094;3.490;2023-05-10T07:41:50;14.30;99.90
56861;DHT22;42744;51.094;3.490;2023-05-10T07:44:16;14.40;99.90
56861;DHT22;42744;51.094;3.490;2023-05-10T07:46:44;14.40;99.90
56861;DHT22;42744;51.094;3.490;2023-05-10T07:49:10;14.40;99.90
56861;DHT22;42744;51.094;3.490;2023-05-10T07:51:36;14.40;99.90
56861;DHT22;42744;51.094;3.490;2023-05-10T07:54:02;14.40;99.90
56861;DHT22;42744;51.094;3.490;2023-05-10T07:56:30;14.30;99.90
56861;DHT22;42744;51.094;3.490;2023-05-10T07:58:58;14.30;99.90
56861;DHT22;42744;51.094;3.490;2023-05-10T08:01:25;14.30;99.90
56861;DHT22;42744;51.094;3.490;2023-05-10T08:03:51;14.30;99.90
56861;DHT22;42744;51.094;3.490;2023-05-10T08:06:19;14.30;99.90
56861;DHT22;42744;51.094;3.490;2023-05-10T08:08:46;14.30;99.90
56861;DHT22;42744;51.094;3.490;2023-05-10T08:11:16;14.40;99.90
56861;DHT22;42744;51.094;3.490;2023-05-10T08:13:46;14.40;99.90
56861;DHT22;42744;51.094;3.490;2023-05-10T08:16:12;14.40;99.90
56861;DHT22;42744;51.094;3.490;2023-05-10T08:18:39;14.30;99.90
56861;DHT22;42744;51.094;3.490;2023-05-10T08:21:05;14.30;99.90
56861;DHT22;42744;51.094;3.490;2023-05-10T08:23:32;14.30;99.90
56861;DHT22;42744;51.094;3.490;2023-05-10T08:25:59;14.30;99.90
56861;DHT22;42744;51.094;3.490;2023-05-10T08:28:25;14.30;99.90
56861;DHT22;42744;51.094;3.490;2023-05-10T08:30:51;14.30;99.90
56861;DHT22;42744;51.094;3.490;2023-05-10T08:33:18;14.40;99.90
56861;DHT22;42744;51.094;3.490;2023-05-10T08:35:44;14.40;99.90
56861;DHT22;42744;51.094;3.490;2023-05-10T08:38:10;14.60;99.90
56861;DHT22;42744;51.094;3.490;2023-05-10T08:40:37;14.70;99.90
56861;DHT22;42744;51.094;3.490;2023-05-10T08:43:10;14.80;99.90
56861;DHT22;42744;51.094;3.490;2023-05-10T08:45:38;15.00;99.90
56861;DHT22;42744;51.094;3.490;2023-05-10T08:48:10;15.20;99.90
56861;DHT22;42744;51.094;3.490;2023-05-10T08:50:37;15.20;99.90
56861;DHT22;42744;51.094;3.490;2023-05-10T08:53:11;15.30;99.90
56861;DHT22;42744;51.094;3.490;2023-05-10T08:55:39;15.20;99.90
56861;DHT22;42744;51.094;3.490;2023-05-10T08:58:06;15.20;99.90
56861;DHT22;42744;51.094;3.490;2023-05-10T09:00:32;15.20;99.90
56861;DHT22;42744;51.094;3.490;2023-05-10T09:02:59;15.30;99.90
56861;DHT22;42744;51.094;3.490;2023-05-10T09:05:25;15.40;99.90
56861;DHT22;42744;51.094;3.490;2023-05-10T09:07:51;15.50;99.90
56861;DHT22;42744;51.094;3.490;2023-05-10T09:10:18;15.60;99.90
56861;DHT22;42744;51.094;3.490;2023-05-10T09:12:44;15.70;99.90
56861;DHT22;42744;51.094;3.490;2023-05-10T09:15:11;15.80;99.90
56861;DHT22;42744;51.094;3.490;2023-05-10T09:17:41;15.80;99.90
56861;DHT22;42744;51.094;3.490;2023-05-10T09:20:08;15.80;99.90
56861;DHT22;42744;51.094;3.490;2023-05-10T09:22:34;15.80;99.90
56861;DHT22;42744;51.094;3.490;2023-05-10T09:27:34;15.80;99.90
56861;DHT22;42744;51.094;3.490;2023-05-10T09:30:01;15.90;99.90
56861;DHT22;42744;51.094;3.490;2023-05-10T09:32:41;16.10;99.90
56861;DHT22;42744;51.094;3.490;2023-05-10T09:35:12;16.10;99.90
56861;DHT22;42744;51.094;3.490;2023-05-10T09:37:43;16.20;99.90
56861;DHT22;42744;51.094;3.490;2023-05-10T09:40:18;16.10;99.90
56861;DHT22;42744;51.094;3.490;2023-05-10T09:42:57;16.20;99.90
56861;DHT22;42744;51.094;3.490;2023-05-10T09:45:28;16.30;99.90
56861;DHT22;42744;51.094;3.490;2023-05-10T09:47:55;16.40;99.90
56861;DHT22;42744;51.094;3.490;2023-05-10T09:50:22;16.60;99.90
56861;DHT22;42744;51.094;3.490;2023-05-10T09:53:00;16.60;99.90
56861;DHT22;42744;51.094;3.490;2023-05-10T09:55:39;16.70;99.90
56861;DHT22;42744;51.094;3.490;2023-05-10T09:58:06;16.70;99.90
56861;DHT22;42744;51.094;3.490;2023-05-10T10:00:40;16.60;99.90
56861;DHT22;42744;51.094;3.490;2023-05-10T10:03:15;16.60;99.90
56861;DHT22;42744;51.094;3.490;2023-05-10T10:05:43;16.70;99.90
56861;DHT22;42744;51.094;3.490;2023-05-10T10:08:10;16.70;99.90
56861;DHT22;42744;51.094;3.490;2023-05-10T10:10:36;16.70;99.90
56861;DHT22;42744;51.094;3.490;2023-05-10T10:13:04;16.70;99.90
56861;DHT22;42744;51.094;3.490;2023-05-10T10:15:30;16.90;99.90
56861;DHT22;42744;51.094;3.490;2023-05-10T10:17:58;16.90;99.90
56861;DHT22;42744;51.094;3.490;2023-05-10T10:20:26;16.90;99.90
56861;DHT22;42744;51.094;3.490;2023-05-10T10:22:53;16.80;99.90
56861;DHT22;42744;51.094;3.490;2023-05-10T10:25:19;16.50;99.90
56861;DHT22;42744;51.094;3.490;2023-05-10T10:35:39;16.00;99.90
56861;DHT22;42744;51.094;3.490;2023-05-10T10:38:08;15.90;99.90
56861;DHT22;42744;51.094;3.490;2023-05-10T10:40:34;15.80;99.90
56861;DHT22;42744;51.094;3.490;2023-05-10T10:43:26;15.80;99.90
56861;DHT22;42744;51.094;3.490;2023-05-10T10:46:12;15.70;99.90
56861;DHT22;42744;51.094;3.490;2023-05-10T10:51:24;15.40;99.90
56861;DHT22;42744;51.094;3.490;2023-05-10T10:53:54;15.30;99.90
56861;DHT22;42744;51.094;3.490;2023-05-10T10:56:22;15.20;99.90
56861;DHT22;42744;51.094;3.490;2023-05-10T10:58:49;15.10;99.90
56861;DHT22;42744;51.094;3.490;2023-05-10T11:01:19;15.10;99.90
56861;DHT22;42744;51.094;3.490;2023-05-10T11:04:18;15.10;99.90
56861;DHT22;42744;51.094;3.490;2023-05-10T11:06:45;15.20;99.90
56861;DHT22;42744;51.094;3.490;2023-05-10T11:09:12;15.30;99.90
56861;DHT22;42744;51.094;3.490;2023-05-10T11:11:54;15.50;99.90
56861;DHT22;42744;51.094;3.490;2023-05-10T11:14:24;15.60;99.90
56861;DHT22;42744;51.094;3.490;2023-05-10T11:16:51;15.70;99.90
56861;DHT22;42744;51.094;3.490;2023-05-10T11:19:18;15.80;99.90
56861;DHT22;42744;51.094;3.490;2023-05-10T11:24:30;15.70;99.90
56861;DHT22;42744;51.094;3.490;2023-05-10T11:26:57;15.70;99.90
56861;DHT22;42744;51.094;3.490;2023-05-10T11:29:23;15.70;99.90
56861;DHT22;42744;51.094;3.490;2023-05-10T11:31:51;15.70;99.90
56861;DHT22;42744;51.094;3.490;2023-05-10T11:34:25;15.70;99.90
56861;DHT22;42744;51.094;3.490;2023-05-10T11:36:53;15.50;99.90
56861;DHT22;42744;51.094;3.490;2023-05-10T11:39:29;15.40;99.90
56861;DHT22;42744;51.094;3.490;2023-05-10T11:41:56;15.30;99.90
56861;DHT22;42744;51.094;3.490;2023-05-10T11:44:22;15.40;99.90
56861;DHT22;42744;51.094;3.490;2023-05-10T11:46:49;15.40;99.90
56861;DHT22;42744;51.094;3.490;2023-05-10T11:49:15;15.40;99.90
56861;DHT22;42744;51.094;3.490;2023-05-10T11:51:41;15.40;99.90
56861;DHT22;42744;51.094;3.490;2023-05-10T11:54:10;15.40;99.90
56861;DHT22;42744;51.094;3.490;2023-05-10T11:56:38;15.40;99.90
56861;DHT22;42744;51.094;3.490;2023-05-10T11:59:05;15.40;99.90
56861;DHT22;42744;51.094;3.490;2023-05-10T12:01:31;15.40;99.90
56861;DHT22;42744;51.094;3.490;2023-05-10T12:03:58;15.30;99.90
56861;DHT22;42744;51.094;3.490;2023-05-10T12:06:32;15.30;99.90
56861;DHT22;42744;51.094;3.490;2023-05-10T12:09:06;15.30;99.90
56861;DHT22;42744;51.094;3.490;2023-05-10T12:11:37;15.30;99.90
56861;DHT22;42744;51.094;3.490;2023-05-10T12:14:05;15.40;99.90
56861;DHT22;42744;51.094;3.490;2023-05-10T12:16:31;15.50;99.90
56861;DHT22;42744;51.094;3.490;2023-05-10T12:18:59;15.60;99.90
56861;DHT22;42744;51.094;3.490;2023-05-10T12:21:26;15.80;99.90
56861;DHT22;42744;51.094;3.490;2023-05-10T12:23:56;15.80;99.90
56861;DHT22;42744;51.094;3.490;2023-05-10T12:26:24;15.90;99.90
56861;DHT22;42744;51.094;3.490;2023-05-10T12:29:00;16.10;99.90
56861;DHT22;42744;51.094;3.490;2023-05-10T12:34:33;16.10;99.90
56861;DHT22;42744;51.094;3.490;2023-05-10T12:36:59;16.30;99.90
56861;DHT22;42744;51.094;3.490;2023-05-10T12:39:26;16.50;99.90
56861;DHT22;42744;51.094;3.490;2023-05-10T12:42:02;16.60;99.90
56861;DHT22;42744;51.094;3.490;2023-05-10T12:44:29;16.60;99.90
56861;DHT22;42744;51.094;3.490;2023-05-10T12:46:54;16.60;99.90
56861;DHT22;42744;51.094;3.490;2023-05-10T12:49:20;16.50;99.90
56861;DHT22;42744;51.094;3.490;2023-05-10T12:51:46;16.50;99.90
56861;DHT22;42744;51.094;3.490;2023-05-10T12:54:12;16.40;99.90
56861;DHT22;42744;51.094;3.490;2023-05-10T12:56:38;16.60;99.90
56861;DHT22;42744;51.094;3.490;2023-05-10T12:59:06;16.80;99.90
56861;DHT22;42744;51.094;3.490;2023-05-10T13:01:32;17.30;99.90
56861;DHT22;42744;51.094;3.490;2023-05-10T13:03:58;17.80;99.90
56861;DHT22;42744;51.094;3.490;2023-05-10T13:06:25;18.00;99.90
56861;DHT22;42744;51.094;3.490;2023-05-10T13:08:51;17.90;99.90
56861;DHT22;42744;51.094;3.490;2023-05-10T13:11:17;17.60;99.90
56861;DHT22;42744;51.094;3.490;2023-05-10T13:13:45;17.40;99.90
56861;DHT22;42744;51.094;3.490;2023-05-10T13:16:11;17.40;99.90
56861;DHT22;42744;51.094;3.490;2023-05-10T13:18:37;17.70;99.90
56861;DHT22;42744;51.094;3.490;2023-05-10T13:21:03;17.80;99.90
56861;DHT22;42744;51.094;3.490;2023-05-10T13:23:31;17.80;99.90
56861;DHT22;42744;51.094;3.490;2023-05-10T13:25:56;17.80;99.90
56861;DHT22;42744;51.094;3.490;2023-05-10T13:28:23;17.70;99.90
56861;DHT22;42744;51.094;3.490;2023-05-10T13:30:49;17.50;99.90
56861;DHT22;42744;51.094;3.490;2023-05-10T13:33:14;17.40;99.90
56861;DHT22;42744;51.094;3.490;2023-05-10T13:35:41;17.30;99.90
56861;DHT22;42744;51.094;3.490;2023-05-10T13:38:06;17.30;99.90
56861;DHT22;42744;51.094;3.490;2023-05-10T13:40:33;17.40;99.90
56861;DHT22;42744;51.094;3.490;2023-05-10T13:43:00;17.40;99.90
56861;DHT22;42744;51.094;3.490;2023-05-10T13:45:25;17.40;99.90
56861;DHT22;42744;51.094;3.490;2023-05-10T13:47:51;17.30;99.90
56861;DHT22;42744;51.094;3.490;2023-05-10T13:50:17;17.20;99.90
56861;DHT22;42744;51.094;3.490;2023-05-10T13:52:44;17.20;99.90
56861;DHT22;42744;51.094;3.490;2023-05-10T13:55:10;17.20;99.90
56861;DHT22;42744;51.094;3.490;2023-05-10T13:57:38;17.20;99.90
56861;DHT22;42744;51.094;3.490;2023-05-10T14:00:04;17.20;99.90
56861;DHT22;42744;51.094;3.490;2023-05-10T14:02:33;17.30;99.90
56861;DHT22;42744;51.094;3.490;2023-05-10T14:04:59;17.40;99.90
56861;DHT22;42744;51.094;3.490;2023-05-10T14:07:25;17.60;99.90
56861;DHT22;42744;51.094;3.490;2023-05-10T14:09:51;17.90;99.90
56861;DHT22;42744;51.094;3.490;2023-05-10T14:12:17;18.10;99.90
56861;DHT22;42744;51.094;3.490;2023-05-10T14:14:43;18.20;99.90
56861;DHT22;42744;51.094;3.490;2023-05-10T14:17:09;18.40;99.90
56861;DHT22;42744;51.094;3.490;2023-05-10T14:19:35;18.50;99.90
56861;DHT22;42744;51.094;3.490;2023-05-10T14:22:01;18.50;99.90
56861;DHT22;42744;51.094;3.490;2023-05-10T14:24:27;18.70;99.90
56861;DHT22;42744;51.094;3.490;2023-05-10T14:26:53;18.80;99.90
56861;DHT22;42744;51.094;3.490;2023-05-10T14:29:20;18.90;99.90
56861;DHT22;42744;51.094;3.490;2023-05-10T14:31:46;19.00;99.90
56861;DHT22;42744;51.094;3.490;2023-05-10T14:34:12;19.00;99.90
56861;DHT22;42744;51.094;3.490;2023-05-10T14:36:38;19.10;99.90
56861;DHT22;42744;51.094;3.490;2023-05-10T14:39:05;19.10;99.90
56861;DHT22;42744;51.094;3.490;2023-05-10T14:41:32;19.10;99.90
56861;DHT22;42744;51.094;3.490;2023-05-10T14:43:58;19.10;99.90
56861;DHT22;42744;51.094;3.490;2023-05-10T14:46:24;19.10;99.90
56861;DHT22;42744;51.094;3.490;2023-05-10T14:48:50;19.00;99.90
56861;DHT22;42744;51.094;3.490;2023-05-10T14:51:16;18.90;99.90
56861;DHT22;42744;51.094;3.490;2023-05-10T14:53:42;18.70;99.90
56861;DHT22;42744;51.094;3.490;2023-05-10T14:56:08;18.60;99.90
56861;DHT22;42744;51.094;3.490;2023-05-10T14:58:34;18.60;99.90
56861;DHT22;42744;51.094;3.490;2023-05-10T15:01:01;18.50;99.90
56861;DHT22;42744;51.094;3.490;2023-05-10T15:03:27;18.30;99.90
56861;DHT22;42744;51.094;3.490;2023-05-10T15:05:53;18.20;99.90
56861;DHT22;42744;51.094;3.490;2023-05-10T15:08:19;18.10;99.90
56861;DHT22;42744;51.094;3.490;2023-05-10T15:10:45;18.20;99.90
56861;DHT22;42744;51.094;3.490;2023-05-10T15:13:11;18.20;99.90
56861;DHT22;42744;51.094;3.490;2023-05-10T15:15:37;18.10;99.90
56861;DHT22;42744;51.094;3.490;2023-05-10T15:18:03;17.90;99.90
56861;DHT22;42744;51.094;3.490;2023-05-10T15:20:30;17.70;99.90
56861;DHT22;42744;51.094;3.490;2023-05-10T15:22:56;17.50;99.90
56861;DHT22;42744;51.094;3.490;2023-05-10T15:25:22;17.40;99.90
56861;DHT22;42744;51.094;3.490;2023-05-10T15:27:49;17.30;99.90
56861;DHT22;42744;51.094;3.490;2023-05-10T15:30:15;17.30;99.90
56861;DHT22;42744;51.094;3.490;2023-05-10T15:32:41;17.30;99.90
56861;DHT22;42744;51.094;3.490;2023-05-10T15:35:08;17.30;99.90
56861;DHT22;42744;51.094;3.490;2023-05-10T15:37:36;17.20;99.90
56861;DHT22;42744;51.094;3.490;2023-05-10T15:40:02;17.30;99.90
56861;DHT22;42744;51.094;3.490;2023-05-10T15:42:29;17.30;99.90
56861;DHT22;42744;51.094;3.490;2023-05-10T15:44:58;17.30;99.90
56861;DHT22;42744;51.094;3.490;2023-05-10T15:47:25;17.20;99.90
56861;DHT22;42744;51.094;3.490;2023-05-10T15:49:53;17.00;99.90
56861;DHT22;42744;51.094;3.490;2023-05-10T15:52:19;17.00;99.90
56861;DHT22;42744;51.094;3.490;2023-05-10T15:54:46;17.00;99.90
56861;DHT22;42744;51.094;3.490;2023-05-10T15:57:12;16.90;99.90
56861;DHT22;42744;51.094;3.490;2023-05-10T15:59:38;16.80;99.90
56861;DHT22;42744;51.094;3.490;2023-05-10T16:02:05;16.80;99.90
56861;DHT22;42744;51.094;3.490;2023-05-10T16:04:32;16.80;99.90
56861;DHT22;42744;51.094;3.490;2023-05-10T16:06:57;16.70;99.90